sensor_id;sensor_type;location;lat;lon;timestamp;pressure;altitude;pressure_sealevel;temperature;humidity
17072;BME280;7731;50.720;6.912;2023-03-20T00:00:30;100380.53;;;8.81;100.00
17072;BME280;7731;50.720;6.912;2023-03-20T00:03:01;100383.91;;;8.81;100.00
17072;BME280;7731;50.720;6.912;2023-03-20T00:05:31;100392.25;;;8.64;100.00
17072;BME280;7731;50.720;6.912;2023-03-20T00:08:03;100384.03;;;8.56;100.00
17072;BME280;7731;50.720;6.912;2023-03-20T00:10:38;100388.56;;;8.71;100.00
17072;BME280;7731;50.720;6.912;2023-03-20T00:13:16;100386.81;;;8.96;100.00
17072;BME280;7731;50.720;6.912;2023-03-20T00:15:53;100395.31;;;8.74;100.00
17072;BME280;7731;50.720;6.912;2023-03-20T00:18:23;100397.81;;;8.52;100.00
17072;BME280;7731;50.720;6.912;2023-03-20T00:20:53;100399.28;;;8.59;100.00
17072;BME280;7731;50.720;6.912;2023-03-20T00:23:24;100396.41;;;8.45;100.00
17072;BME280;7731;50.720;6.912;2023-03-20T00:25:55;100399.28;;;8.34;100.00
17072;BME280;7731;50.720;6.912;2023-03-20T00:28:42;100404.34;;;8.35;100.00
17072;BME280;7731;50.720;6.912;2023-03-20T00:31:24;100399.13;;;8.15;100.00
17072;BME280;7731;50.720;6.912;2023-03-20T00:33:57;100412.47;;;8.23;100.00
17072;BME280;7731;50.720;6.912;2023-03-20T00:36:28;100406.63;;;8.45;100.00
17072;BME280;7731;50.720;6.912;2023-03-20T00:39:01;100423.44;;;8.52;100.00
17072;BME280;7731;50.720;6.912;2023-03-20T00:41:38;100418.44;;;8.72;100.00
17072;BME280;7731;50.720;6.912;2023-03-20T00:44:21;100411.91;;;8.38;100.00
17072;BME280;7731;50.720;6.912;2023-03-20T00:47:00;100410.97;;;8.41;100.00
17072;BME280;7731;50.720;6.912;2023-03-20T00:49:34;100416.50;;;8.30;100.00
17072;BME280;7731;50.720;6.912;2023-03-20T00:52:09;100429.66;;;8.19;100.00
17072;BME280;7731;50.720;6.912;2023-03-20T00:54:44;100431.28;;;8.22;100.00
17072;BME280;7731;50.720;6.912;2023-03-20T00:57:20;100436.31;;;8.25;100.00
17072;BME280;7731;50.720;6.912;2023-03-20T00:59:56;100429.63;;;8.21;100.00
17072;BME280;7731;50.720;6.912;2023-03-20T01:02:30;100423.66;;;8.20;100.00
17072;BME280;7731;50.720;6.912;2023-03-20T01:05:01;100430.03;;;8.09;100.00
17072;BME280;7731;50.720;6.912;2023-03-20T01:07:32;100441.53;;;8.22;100.00
17072;BME280;7731;50.720;6.912;2023-03-20T01:10:04;100438.38;;;8.14;100.00
17072;BME280;7731;50.720;6.912;2023-03-20T01:12:34;100439.97;;;8.18;100.00
17072;BME280;7731;50.720;6.912;2023-03-20T01:15:19;100438.50;;;8.36;100.00
17072;BME280;7731;50.720;6.912;2023-03-20T01:17:52;100447.97;;;8.32;100.00
17072;BME280;7731;50.720;6.912;2023-03-20T01:20:25;100441.53;;;8.22;100.00
17072;BME280;7731;50.720;6.912;2023-03-20T01:22:56;100442.50;;;8.18;100.00
17072;BME280;7731;50.720;6.912;2023-03-20T01:25:26;100443.34;;;8.18;100.00
17072;BME280;7731;50.720;6.912;2023-03-20T01:27:56;100435.25;;;8.05;100.00
17072;BME280;7731;50.720;6.912;2023-03-20T01:30:29;100439.84;;;8.21;100.00
17072;BME280;7731;50.720;6.912;2023-03-20T01:33:15;100438.16;;;8.20;100.00
17072;BME280;7731;50.720;6.912;2023-03-20T01:35:48;100426.59;;;8.10;100.00
17072;BME280;7731;50.720;6.912;2023-03-20T01:38:23;100424.41;;;7.99;100.00
17072;BME280;7731;50.720;6.912;2023-03-20T01:40:56;100427.13;;;7.94;100.00
17072;BME280;7731;50.720;6.912;2023-03-20T01:43:32;100415.41;;;8.12;100.00
17072;BME280;7731;50.720;6.912;2023-03-20T01:46:16;100418.13;;;8.08;100.00
17072;BME280;7731;50.720;6.912;2023-03-20T01:49:08;100405.69;;;7.97;100.00
17072;BME280;7731;50.720;6.912;2023-03-20T01:51:57;100410.00;;;7.96;100.00
17072;BME280;7731;50.720;6.912;2023-03-20T01:54:32;100407.16;;;8.04;100.00
17072;BME280;7731;50.720;6.912;2023-03-20T01:57:10;100414.69;;;8.09;100.00
17072;BME280;7731;50.720;6.912;2023-03-20T01:59:47;100407.78;;;8.11;100.00
17072;BME280;7731;50.720;6.912;2023-03-20T02:02:24;100410.72;;;8.00;100.00
17072;BME280;7731;50.720;6.912;2023-03-20T02:05:02;100404.56;;;8.05;100.00
17072;BME280;7731;50.720;6.912;2023-03-20T02:07:38;100407.38;;;7.98;100.00
17072;BME280;7731;50.720;6.912;2023-03-20T02:10:12;100405.53;;;8.01;100.00
17072;BME280;7731;50.720;6.912;2023-03-20T02:12:46;100410.25;;;7.89;100.00
17072;BME280;7731;50.720;6.912;2023-03-20T02:15:17;100411.97;;;7.88;100.00
17072;BME280;7731;50.720;6.912;2023-03-20T02:17:47;100416.09;;;7.92;100.00
17072;BME280;7731;50.720;6.912;2023-03-20T02:20:42;100410.09;;;7.93;100.00
17072;BME280;7731;50.720;6.912;2023-03-20T02:24:04;100404.22;;;7.91;100.00
17072;BME280;7731;50.720;6.912;2023-03-20T02:26:51;100415.53;;;7.84;100.00
17072;BME280;7731;50.720;6.912;2023-03-20T02:30:09;100419.72;;;7.86;100.00
17072;BME280;7731;50.720;6.912;2023-03-20T02:33:43;100422.22;;;7.88;100.00
17072;BME280;7731;50.720;6.912;2023-03-20T02:40:10;100416.25;;;7.87;100.00
17072;BME280;7731;50.720;6.912;2023-03-20T02:42:55;100415.41;;;7.87;100.00
17072;BME280;7731;50.720;6.912;2023-03-20T02:45:32;100395.00;;;7.85;100.00
17072;BME280;7731;50.720;6.912;2023-03-20T02:48:13;100389.53;;;7.96;100.00
17072;BME280;7731;50.720;6.912;2023-03-20T02:50:57;100398.19;;;7.92;100.00
17072;BME280;7731;50.720;6.912;2023-03-20T02:53:42;100416.78;;;7.97;100.00
17072;BME280;7731;50.720;6.912;2023-03-20T02:56:27;100407.59;;;7.92;100.00
17072;BME280;7731;50.720;6.912;2023-03-20T02:59:11;100393.47;;;7.80;100.00
17072;BME280;7731;50.720;6.912;2023-03-20T03:01:51;100383.25;;;7.80;100.00
17072;BME280;7731;50.720;6.912;2023-03-20T03:04:26;100386.63;;;7.82;100.00
17072;BME280;7731;50.720;6.912;2023-03-20T03:07:05;100386.81;;;7.76;100.00
17072;BME280;7731;50.720;6.912;2023-03-20T03:09:44;100406.31;;;7.78;100.00
17072;BME280;7731;50.720;6.912;2023-03-20T03:12:22;100402.06;;;7.79;100.00
17072;BME280;7731;50.720;6.912;2023-03-20T03:14:58;100410.25;;;7.63;100.00
17072;BME280;7731;50.720;6.912;2023-03-20T03:17:34;100410.25;;;7.63;100.00
17072;BME280;7731;50.720;6.912;2023-03-20T03:20:18;100411.13;;;7.62;100.00
17072;BME280;7731;50.720;6.912;2023-03-20T03:22:49;100405.59;;;7.75;100.00
17072;BME280;7731;50.720;6.912;2023-03-20T03:25:26;100407.38;;;7.73;100.00
17072;BME280;7731;50.720;6.912;2023-03-20T03:28:07;100399.50;;;7.52;100.00
17072;BME280;7731;50.720;6.912;2023-03-20T03:30:39;100404.00;;;7.45;100.00
17072;BME280;7731;50.720;6.912;2023-03-20T03:33:18;100417.47;;;7.50;100.00
17072;BME280;7731;50.720;6.912;2023-03-20T03:35:53;100415.97;;;7.45;100.00
17072;BME280;7731;50.720;6.912;2023-03-20T03:38:33;100412.91;;;7.60;100.00
17072;BME280;7731;50.720;6.912;2023-03-20T03:41:24;100402.69;;;7.60;100.00
17072;BME280;7731;50.720;6.912;2023-03-20T03:44:09;100403.19;;;7.70;100.00
17072;BME280;7731;50.720;6.912;2023-03-20T03:46:46;100395.56;;;7.68;100.00
17072;BME280;7731;50.720;6.912;2023-03-20T03:49:23;100385.75;;;7.56;100.00
17072;BME280;7731;50.720;6.912;2023-03-20T03:52:02;100392.66;;;7.54;100.00
17072;BME280;7731;50.720;6.912;2023-03-20T03:54:40;100399.72;;;7.73;100.00
17072;BME280;7731;50.720;6.912;2023-03-20T03:57:16;100408.81;;;7.55;100.00
17072;BME280;7731;50.720;6.912;2023-03-20T03:59:52;100426.56;;;7.59;100.00
17072;BME280;7731;50.720;6.912;2023-03-20T04:02:25;100422.78;;;7.44;100.00
17072;BME280;7731;50.720;6.912;2023-03-20T04:05:00;100424.66;;;7.39;100.00
17072;BME280;7731;50.720;6.912;2023-03-20T04:07:32;100433.84;;;7.45;100.00
17072;BME280;7731;50.720;6.912;2023-03-20T04:10:11;100433.34;;;7.60;100.00
17072;BME280;7731;50.720;6.912;2023-03-20T04:12:44;100431.34;;;7.43;100.00
17072;BME280;7731;50.720;6.912;2023-03-20T04:15:17;100434.03;;;7.39;100.00
17072;BME280;7731;50.720;6.912;2023-03-20T04:17:48;100443.56;;;7.33;100.00
17072;BME280;7731;50.720;6.912;2023-03-20T04:20:18;100456.63;;;7.24;100.00
17072;BME280;7731;50.720;6.912;2023-03-20T04:22:49;100445.72;;;7.19;100.00
17072;BME280;7731;50.720;6.912;2023-03-20T04:25:21;100429.38;;;7.23;100.00
17072;BME280;7731;50.720;6.912;2023-03-20T04:27:52;100423.78;;;7.12;100.00
17072;BME280;7731;50.720;6.912;2023-03-20T04:30:25;100429.66;;;7.14;100.00
17072;BME280;7731;50.720;6.912;2023-03-20T04:32:55;100430.63;;;7.11;100.00
17072;BME280;7731;50.720;6.912;2023-03-20T04:35:25;100428.78;;;7.15;100.00
17072;BME280;7731;50.720;6.912;2023-03-20T04:37:55;100428.47;;;7.26;100.00
17072;BME280;7731;50.720;6.912;2023-03-20T04:40:25;100418.34;;;7.23;100.00
17072;BME280;7731;50.720;6.912;2023-03-20T04:42:57;100429.94;;;7.05;100.00
17072;BME280;7731;50.720;6.912;2023-03-20T04:45:30;100418.22;;;6.99;100.00
17072;BME280;7731;50.720;6.912;2023-03-20T04:48:01;100421.44;;;7.04;100.00
17072;BME280;7731;50.720;6.912;2023-03-20T04:50:32;100411.91;;;7.09;100.00
17072;BME280;7731;50.720;6.912;2023-03-20T04:53:02;100411.28;;;7.03;100.00
17072;BME280;7731;50.720;6.912;2023-03-20T04:55:32;100407.75;;;7.07;100.00
17072;BME280;7731;50.720;6.912;2023-03-20T04:58:03;100402.94;;;6.97;100.00
17072;BME280;7731;50.720;6.912;2023-03-20T05:00:36;100396.69;;;7.06;100.00
17072;BME280;7731;50.720;6.912;2023-03-20T05:03:06;100390.78;;;7.04;100.00
17072;BME280;7731;50.720;6.912;2023-03-20T05:05:37;100399.81;;;7.16;100.00
17072;BME280;7731;50.720;6.912;2023-03-20T05:08:07;100393.63;;;6.95;100.00
17072;BME280;7731;50.720;6.912;2023-03-20T05:10:39;100392.81;;;6.94;100.00
17072;BME280;7731;50.720;6.912;2023-03-20T05:13:09;100394.47;;;6.95;100.00
17072;BME280;7731;50.720;6.912;2023-03-20T05:15:43;100400.28;;;7.01;100.00
17072;BME280;7731;50.720;6.912;2023-03-20T05:18:14;100396.19;;;6.95;100.00
17072;BME280;7731;50.720;6.912;2023-03-20T05:20:48;100397.38;;;6.83;100.00
17072;BME280;7731;50.720;6.912;2023-03-20T05:23:18;100390.03;;;7.29;100.00
17072;BME280;7731;50.720;6.912;2023-03-20T05:25:48;100391.84;;;7.25;100.00
17072;BME280;7731;50.720;6.912;2023-03-20T05:28:18;100383.00;;;7.09;100.00
17072;BME280;7731;50.720;6.912;2023-03-20T05:30:51;100382.13;;;7.10;100.00
17072;BME280;7731;50.720;6.912;2023-03-20T05:33:22;100389.06;;;7.05;100.00
17072;BME280;7731;50.720;6.912;2023-03-20T05:35:52;100396.59;;;6.81;100.00
17072;BME280;7731;50.720;6.912;2023-03-20T05:38:22;100396.50;;;6.84;100.00
17072;BME280;7731;50.720;6.912;2023-03-20T05:40:57;100401.72;;;6.81;100.00
17072;BME280;7731;50.720;6.912;2023-03-20T05:43:28;100396.34;;;6.60;100.00
17072;BME280;7731;50.720;6.912;2023-03-20T05:46:00;100397.06;;;6.66;100.00
17072;BME280;7731;50.720;6.912;2023-03-20T05:48:30;100398.47;;;6.76;100.00
17072;BME280;7731;50.720;6.912;2023-03-20T05:51:01;100395.00;;;6.77;100.00
17072;BME280;7731;50.720;6.912;2023-03-20T05:53:31;100400.94;;;6.79;100.00
17072;BME280;7731;50.720;6.912;2023-03-20T05:56:01;100406.81;;;6.81;100.00
17072;BME280;7731;50.720;6.912;2023-03-20T05:58:31;100403.47;;;6.79;100.00
17072;BME280;7731;50.720;6.912;2023-03-20T06:01:06;100410.16;;;6.83;100.00
17072;BME280;7731;50.720;6.912;2023-03-20T06:03:37;100415.25;;;6.83;100.00
17072;BME280;7731;50.720;6.912;2023-03-20T06:06:08;100417.84;;;6.82;100.00
17072;BME280;7731;50.720;6.912;2023-03-20T06:08:38;100410.97;;;6.85;100.00
17072;BME280;7731;50.720;6.912;2023-03-20T06:11:10;100410.19;;;6.82;100.00
17072;BME280;7731;50.720;6.912;2023-03-20T06:13:40;100413.69;;;6.79;100.00
17072;BME280;7731;50.720;6.912;2023-03-20T06:16:13;100412.66;;;6.85;100.00
17072;BME280;7731;50.720;6.912;2023-03-20T06:18:44;100412.59;;;6.58;100.00
17072;BME280;7731;50.720;6.912;2023-03-20T06:21:15;100413.19;;;6.66;100.00
17072;BME280;7731;50.720;6.912;2023-03-20T06:23:45;100423.06;;;6.78;100.00
17072;BME280;7731;50.720;6.912;2023-03-20T06:26:15;100427.44;;;6.75;100.00
17072;BME280;7731;50.720;6.912;2023-03-20T06:28:45;100420.38;;;6.83;100.00
17072;BME280;7731;50.720;6.912;2023-03-20T06:31:18;100419.19;;;6.95;100.00
17072;BME280;7731;50.720;6.912;2023-03-20T06:33:48;100413.56;;;6.84;100.00
17072;BME280;7731;50.720;6.912;2023-03-20T06:36:18;100416.78;;;7.17;100.00
17072;BME280;7731;50.720;6.912;2023-03-20T06:38:49;100405.50;;;7.24;100.00
17072;BME280;7731;50.720;6.912;2023-03-20T06:41:19;100407.47;;;7.16;100.00
17072;BME280;7731;50.720;6.912;2023-03-20T06:44:01;100409.41;;;7.08;100.00
17072;BME280;7731;50.720;6.912;2023-03-20T06:46:38;100414.84;;;7.52;100.00
17072;BME280;7731;50.720;6.912;2023-03-20T06:49:08;100415.66;;;7.54;100.00
17072;BME280;7731;50.720;6.912;2023-03-20T06:51:38;100416.34;;;7.59;100.00
17072;BME280;7731;50.720;6.912;2023-03-20T06:54:13;100425.28;;;7.73;100.00
17072;BME280;7731;50.720;6.912;2023-03-20T06:56:43;100425.13;;;7.77;100.00
17072;BME280;7731;50.720;6.912;2023-03-20T06:59:14;100399.84;;;7.93;100.00
17072;BME280;7731;50.720;6.912;2023-03-20T07:01:47;100415.25;;;7.92;100.00
17072;BME280;7731;50.720;6.912;2023-03-20T07:04:17;100416.97;;;8.40;100.00
17072;BME280;7731;50.720;6.912;2023-03-20T07:06:48;100417.03;;;8.38;100.00
17072;BME280;7731;50.720;6.912;2023-03-20T07:09:18;100423.44;;;8.52;100.00
17072;BME280;7731;50.720;6.912;2023-03-20T07:11:51;100426.06;;;7.75;100.00
17072;BME280;7731;50.720;6.912;2023-03-20T07:14:21;100433.13;;;7.93;100.00
17072;BME280;7731;50.720;6.912;2023-03-20T07:16:56;100435.44;;;8.25;100.00
17072;BME280;7731;50.720;6.912;2023-03-20T07:19:27;100430.47;;;7.96;100.00
17072;BME280;7731;50.720;6.912;2023-03-20T07:22:07;100441.63;;;7.94;100.00
17072;BME280;7731;50.720;6.912;2023-03-20T07:24:38;100447.00;;;8.36;100.00
17072;BME280;7731;50.720;6.912;2023-03-20T07:27:08;100453.06;;;8.59;100.00
17072;BME280;7731;50.720;6.912;2023-03-20T07:29:38;100455.94;;;9.19;100.00
17072;BME280;7731;50.720;6.912;2023-03-20T07:32:13;100460.38;;;8.92;100.00
17072;BME280;7731;50.720;6.912;2023-03-20T07:34:44;100460.22;;;8.97;100.00
17072;BME280;7731;50.720;6.912;2023-03-20T07:37:15;100468.81;;;9.62;100.00
17072;BME280;7731;50.720;6.912;2023-03-20T07:39:45;100477.63;;;9.10;100.00
17072;BME280;7731;50.720;6.912;2023-03-20T07:42:16;100477.41;;;9.61;100.00
17072;BME280;7731;50.720;6.912;2023-03-20T07:44:46;100482.78;;;9.55;100.00
17072;BME280;7731;50.720;6.912;2023-03-20T07:47:19;100485.81;;;9.42;100.00
17072;BME280;7731;50.720;6.912;2023-03-20T07:49:49;100483.47;;;10.01;100.00
17072;BME280;7731;50.720;6.912;2023-03-20T07:52:20;100491.72;;;9.44;100.00
17072;BME280;7731;50.720;6.912;2023-03-20T07:54:50;100484.09;;;9.21;100.00
17072;BME280;7731;50.720;6.912;2023-03-20T07:57:20;100489.16;;;9.22;100.00
17072;BME280;7731;50.720;6.912;2023-03-20T07:59:51;100488.38;;;9.42;100.00
17072;BME280;7731;50.720;6.912;2023-03-20T08:02:24;100495.25;;;8.96;100.00
17072;BME280;7731;50.720;6.912;2023-03-20T08:04:55;100497.53;;;9.04;100.00
17072;BME280;7731;50.720;6.912;2023-03-20T08:07:25;100500.34;;;9.20;100.00
17072;BME280;7731;50.720;6.912;2023-03-20T08:09:56;100509.19;;;8.89;100.00
17072;BME280;7731;50.720;6.912;2023-03-20T08:12:26;100505.94;;;9.31;100.00
17072;BME280;7731;50.720;6.912;2023-03-20T08:14:56;100507.94;;;9.23;100.00
17072;BME280;7731;50.720;6.912;2023-03-20T08:17:31;100509.81;;;8.96;100.00
17072;BME280;7731;50.720;6.912;2023-03-20T08:20:02;100513.44;;;9.36;100.00
17072;BME280;7731;50.720;6.912;2023-03-20T08:22:33;100514.16;;;9.61;100.00
17072;BME280;7731;50.720;6.912;2023-03-20T08:25:06;100512.59;;;9.35;100.00
17072;BME280;7731;50.720;6.912;2023-03-20T08:27:37;100514.47;;;9.08;100.00
17072;BME280;7731;50.720;6.912;2023-03-20T08:30:10;100516.41;;;9.25;100.00
17072;BME280;7731;50.720;6.912;2023-03-20T08:32:43;100512.06;;;9.27;100.00
17072;BME280;7731;50.720;6.912;2023-03-20T08:35:13;100521.88;;;9.16;100.00
17072;BME280;7731;50.720;6.912;2023-03-20T08:37:59;100518.19;;;9.23;100.00
17072;BME280;7731;50.720;6.912;2023-03-20T08:40:30;100524.91;;;9.03;100.00
17072;BME280;7731;50.720;6.912;2023-03-20T08:43:00;100525.00;;;9.68;100.00
17072;BME280;7731;50.720;6.912;2023-03-20T08:45:31;100520.31;;;9.11;100.00
17072;BME280;7731;50.720;6.912;2023-03-20T08:48:04;100509.66;;;9.44;100.00
17072;BME280;7731;50.720;6.912;2023-03-20T08:50:35;100507.69;;;9.29;100.00
17072;BME280;7731;50.720;6.912;2023-03-20T08:53:06;100509.97;;;9.59;100.00
17072;BME280;7731;50.720;6.912;2023-03-20T08:55:36;100506.88;;;9.73;100.00
17072;BME280;7731;50.720;6.912;2023-03-20T08:58:06;100510.13;;;9.76;100.00
17072;BME280;7731;50.720;6.912;2023-03-20T09:00:37;100507.00;;;9.70;96.84
17072;BME280;7731;50.720;6.912;2023-03-20T09:03:15;100515.06;;;9.15;100.00
17072;BME280;7731;50.720;6.912;2023-03-20T09:05:50;100504.59;;;9.21;100.00
17072;BME280;7731;50.720;6.912;2023-03-20T09:08:20;100509.03;;;9.39;100.00
17072;BME280;7731;50.720;6.912;2023-03-20T09:10:50;100504.41;;;9.25;100.00
17072;BME280;7731;50.720;6.912;2023-03-20T09:13:21;100513.75;;;9.93;100.00
17072;BME280;7731;50.720;6.912;2023-03-20T09:15:56;100514.84;;;9.87;99.41
17072;BME280;7731;50.720;6.912;2023-03-20T09:18:29;100513.00;;;9.91;98.10
17072;BME280;7731;50.720;6.912;2023-03-20T09:20:59;100508.75;;;9.90;98.73
17072;BME280;7731;50.720;6.912;2023-03-20T09:23:33;100512.09;;;10.74;95.01
17072;BME280;7731;50.720;6.912;2023-03-20T09:26:04;100497.97;;;11.94;88.45
17072;BME280;7731;50.720;6.912;2023-03-20T09:28:34;100501.97;;;12.35;79.25
17072;BME280;7731;50.720;6.912;2023-03-20T09:31:05;100504.53;;;12.35;78.73
17072;BME280;7731;50.720;6.912;2023-03-20T09:33:38;100510.03;;;11.93;80.20
17072;BME280;7731;50.720;6.912;2023-03-20T09:36:09;100505.69;;;11.76;79.09
17072;BME280;7731;50.720;6.912;2023-03-20T09:38:39;100513.63;;;11.16;80.11
17072;BME280;7731;50.720;6.912;2023-03-20T09:41:17;100515.97;;;11.40;79.58
17072;BME280;7731;50.720;6.912;2023-03-20T09:44:08;100519.06;;;10.51;87.49
17072;BME280;7731;50.720;6.912;2023-03-20T09:47:06;100510.84;;;11.40;81.94
17072;BME280;7731;50.720;6.912;2023-03-20T09:50:10;100512.44;;;10.85;81.53
17072;BME280;7731;50.720;6.912;2023-03-20T09:52:58;100510.84;;;10.83;80.83
17072;BME280;7731;50.720;6.912;2023-03-20T09:55:36;100515.66;;;10.90;84.03
17072;BME280;7731;50.720;6.912;2023-03-20T09:58:19;100512.88;;;11.14;79.47
17072;BME280;7731;50.720;6.912;2023-03-20T10:00:51;100515.03;;;11.04;78.85
17072;BME280;7731;50.720;6.912;2023-03-20T10:03:28;100506.53;;;11.21;76.04
17072;BME280;7731;50.720;6.912;2023-03-20T10:06:11;100511.41;;;10.89;76.38
17072;BME280;7731;50.720;6.912;2023-03-20T10:08:44;100505.13;;;10.76;78.53
17072;BME280;7731;50.720;6.912;2023-03-20T10:14:28;100508.41;;;11.18;77.05
17072;BME280;7731;50.720;6.912;2023-03-20T10:17:16;100506.97;;;11.12;74.74
17072;BME280;7731;50.720;6.912;2023-03-20T10:19:54;100512.72;;;11.17;76.08
17072;BME280;7731;50.720;6.912;2023-03-20T10:22:35;100508.41;;;10.99;75.87
17072;BME280;7731;50.720;6.912;2023-03-20T10:25:17;100506.97;;;11.12;80.01
17072;BME280;7731;50.720;6.912;2023-03-20T10:27:55;100512.44;;;11.23;75.89
17072;BME280;7731;50.720;6.912;2023-03-20T10:30:44;100507.19;;;11.80;74.23
17072;BME280;7731;50.720;6.912;2023-03-20T10:33:43;100506.34;;;11.63;70.37
17072;BME280;7731;50.720;6.912;2023-03-20T10:36:41;100510.91;;;11.38;70.03
17072;BME280;7731;50.720;6.912;2023-03-20T10:39:30;100512.75;;;11.54;67.86
17072;BME280;7731;50.720;6.912;2023-03-20T10:42:14;100508.66;;;12.04;65.27
17072;BME280;7731;50.720;6.912;2023-03-20T10:44:54;100507.28;;;12.14;63.13
17072;BME280;7731;50.720;6.912;2023-03-20T10:47:33;100506.81;;;11.88;63.95
17072;BME280;7731;50.720;6.912;2023-03-20T10:50:11;100503.56;;;12.02;63.54
17072;BME280;7731;50.720;6.912;2023-03-20T10:52:47;100515.34;;;11.71;64.66
17072;BME280;7731;50.720;6.912;2023-03-20T10:55:27;100509.88;;;11.60;64.36
17072;BME280;7731;50.720;6.912;2023-03-20T10:58:05;100509.03;;;11.04;67.63
17072;BME280;7731;50.720;6.912;2023-03-20T11:00:40;100506.34;;;11.63;66.54
17072;BME280;7731;50.720;6.912;2023-03-20T11:03:21;100506.19;;;11.10;65.53
17072;BME280;7731;50.720;6.912;2023-03-20T11:06:00;100504.16;;;10.98;66.93
17072;BME280;7731;50.720;6.912;2023-03-20T11:08:39;100508.56;;;10.56;64.55
17072;BME280;7731;50.720;6.912;2023-03-20T11:11:12;100510.19;;;10.38;64.93
17072;BME280;7731;50.720;6.912;2023-03-20T11:13:43;100500.97;;;10.93;65.39
17072;BME280;7731;50.720;6.912;2023-03-20T11:16:24;100489.88;;;10.92;63.39
17072;BME280;7731;50.720;6.912;2023-03-20T11:18:55;100503.06;;;10.84;62.36
17072;BME280;7731;50.720;6.912;2023-03-20T11:21:27;100503.13;;;11.02;64.42
17072;BME280;7731;50.720;6.912;2023-03-20T11:24:00;100497.34;;;10.59;63.97
17072;BME280;7731;50.720;6.912;2023-03-20T11:26:40;100503.63;;;10.31;64.09
17072;BME280;7731;50.720;6.912;2023-03-20T11:29:22;100494.16;;;10.12;67.25
17072;BME280;7731;50.720;6.912;2023-03-20T11:32:06;100492.09;;;10.41;66.32
17072;BME280;7731;50.720;6.912;2023-03-20T11:34:37;100487.06;;;10.17;67.63
17072;BME280;7731;50.720;6.912;2023-03-20T11:37:22;100481.44;;;10.09;65.48
17072;BME280;7731;50.720;6.912;2023-03-20T11:40:13;100494.09;;;10.34;68.38
17072;BME280;7731;50.720;6.912;2023-03-20T11:42:56;100481.03;;;9.98;65.81
17072;BME280;7731;50.720;6.912;2023-03-20T11:45:36;100475.13;;;10.16;67.34
17072;BME280;7731;50.720;6.912;2023-03-20T11:48:17;100476.53;;;10.44;65.90
17072;BME280;7731;50.720;6.912;2023-03-20T11:51:01;100470.16;;;10.74;66.07
17072;BME280;7731;50.720;6.912;2023-03-20T11:53:38;100457.34;;;10.12;68.96
17072;BME280;7731;50.720;6.912;2023-03-20T11:56:22;100458.56;;;10.44;68.37
17072;BME280;7731;50.720;6.912;2023-03-20T11:58:59;100464.56;;;10.64;67.71
17072;BME280;7731;50.720;6.912;2023-03-20T12:01:40;100461.59;;;11.29;63.55
17072;BME280;7731;50.720;6.912;2023-03-20T12:04:17;100456.81;;;11.57;62.67
17072;BME280;7731;50.720;6.912;2023-03-20T12:06:53;100452.41;;;11.42;65.17
17072;BME280;7731;50.720;6.912;2023-03-20T12:09:36;100464.81;;;11.34;64.71
17072;BME280;7731;50.720;6.912;2023-03-20T12:12:18;100459.38;;;11.40;64.34
17072;BME280;7731;50.720;6.912;2023-03-20T12:15:13;100461.44;;;10.76;62.40
17072;BME280;7731;50.720;6.912;2023-03-20T12:17:53;100449.72;;;10.70;63.12
17072;BME280;7731;50.720;6.912;2023-03-20T12:20:36;100448.59;;;10.76;63.80
17072;BME280;7731;50.720;6.912;2023-03-20T12:23:21;100445.69;;;11.03;65.00
17072;BME280;7731;50.720;6.912;2023-03-20T12:26:00;100443.19;;;11.01;64.90
17072;BME280;7731;50.720;6.912;2023-03-20T12:28:41;100436.88;;;10.70;69.44
17072;BME280;7731;50.720;6.912;2023-03-20T12:31:23;100443.44;;;10.17;75.83
17072;BME280;7731;50.720;6.912;2023-03-20T12:34:00;100437.47;;;10.95;74.30
17072;BME280;7731;50.720;6.912;2023-03-20T12:36:42;100426.91;;;11.01;74.80
17072;BME280;7731;50.720;6.912;2023-03-20T12:39:18;100436.25;;;10.84;76.85
17072;BME280;7731;50.720;6.912;2023-03-20T12:42:05;100436.09;;;10.87;80.73
17072;BME280;7731;50.720;6.912;2023-03-20T12:44:44;100426.50;;;10.91;80.83
17072;BME280;7731;50.720;6.912;2023-03-20T12:48:01;100429.81;;;11.12;78.59
17072;BME280;7731;50.720;6.912;2023-03-20T12:50:37;100415.75;;;11.19;76.29
17072;BME280;7731;50.720;6.912;2023-03-20T12:53:29;100426.09;;;11.89;73.47
17072;BME280;7731;50.720;6.912;2023-03-20T12:56:18;100408.97;;;10.99;74.09
17072;BME280;7731;50.720;6.912;2023-03-20T12:58:59;100406.69;;;11.12;74.43
17072;BME280;7731;50.720;6.912;2023-03-20T13:01:40;100398.03;;;10.96;75.31
17072;BME280;7731;50.720;6.912;2023-03-20T13:04:42;100397.25;;;11.48;72.34
17072;BME280;7731;50.720;6.912;2023-03-20T13:07:18;100402.25;;;11.51;73.83
17072;BME280;7731;50.720;6.912;2023-03-20T13:10:16;100395.00;;;11.76;75.71
17072;BME280;7731;50.720;6.912;2023-03-20T13:13:05;100411.53;;;10.63;74.64
17072;BME280;7731;50.720;6.912;2023-03-20T13:15:59;100406.84;;;11.26;75.55
17072;BME280;7731;50.720;6.912;2023-03-20T13:18:46;100410.75;;;11.16;74.39
17072;BME280;7731;50.720;6.912;2023-03-20T13:21:31;100405.13;;;10.90;77.51
17072;BME280;7731;50.720;6.912;2023-03-20T13:24:21;100400.75;;;11.10;73.52
17072;BME280;7731;50.720;6.912;2023-03-20T13:27:05;100408.00;;;11.02;74.08
17072;BME280;7731;50.720;6.912;2023-03-20T13:29:47;100392.28;;;11.08;71.43
17072;BME280;7731;50.720;6.912;2023-03-20T13:32:32;100398.69;;;11.18;70.44
17072;BME280;7731;50.720;6.912;2023-03-20T13:35:32;100388.69;;;11.47;69.84
17072;BME280;7731;50.720;6.912;2023-03-20T13:38:14;100383.78;;;11.25;70.57
17072;BME280;7731;50.720;6.912;2023-03-20T13:40:49;100385.03;;;11.16;72.88
17072;BME280;7731;50.720;6.912;2023-03-20T13:43:29;100375.03;;;11.10;69.34
17072;BME280;7731;50.720;6.912;2023-03-20T13:46:06;100381.78;;;10.95;69.85
17072;BME280;7731;50.720;6.912;2023-03-20T13:48:40;100369.94;;;11.28;68.70
17072;BME280;7731;50.720;6.912;2023-03-20T13:51:24;100370.38;;;11.53;66.10
17072;BME280;7731;50.720;6.912;2023-03-20T13:54:14;100377.16;;;11.02;70.75
17072;BME280;7731;50.720;6.912;2023-03-20T13:56:56;100374.72;;;10.81;72.16